Terminal Aerodrome Forecast
Issued by NWS Cleveland, OH

Home | Current Version | Previous Version | Graphics & Text | Print | Product List | Glossary Off
Versions: 1 2 3 4 5 6 7 8 9 10 11 12 13 14 15 16 17 18 19 20 21 22 23 24 25

000
FTUS41 KCLE 231100
TAFTOL
TAF
KTOL 231124Z 2312/2412 05003KT 6SM BR SCT050
      TEMPO 2312/2313 3SM BR
     FM231400 06004KT P6SM SCT015 BKN060
     FM231700 06006KT P6SM BKN035
     FM240000 06004KT P6SM SCT040
     FM240500 06003KT 5SM BR FEW040
     FM240900 07003KT 1SM BR BKN005=

USA.gov is the U.S. government's official web portal to all federal, state and local government web resources and services.